sensor_id;sensor_type;location;lat;lon;timestamp;P1;durP1;ratioP1;P2;durP2;ratioP2
74833;SDS011;63361;52.384;20.930;2023-11-21T00:00:49;22.60;;;11.83;;
74833;SDS011;63361;52.384;20.930;2023-11-21T00:03:14;31.20;;;14.03;;
74833;SDS011;63361;52.384;20.930;2023-11-21T00:05:44;26.50;;;14.10;;
74833;SDS011;63361;52.384;20.930;2023-11-21T00:08:09;26.83;;;13.90;;
74833;SDS011;63361;52.384;20.930;2023-11-21T00:10:35;21.98;;;11.63;;
74833;SDS011;63361;52.384;20.930;2023-11-21T00:13:03;28.48;;;12.32;;
74833;SDS011;63361;52.384;20.930;2023-11-21T00:15:28;33.03;;;15.10;;
74833;SDS011;63361;52.384;20.930;2023-11-21T00:17:53;27.57;;;13.70;;
74833;SDS011;63361;52.384;20.930;2023-11-21T00:20:19;28.87;;;15.10;;
74833;SDS011;63361;52.384;20.930;2023-11-21T00:22:44;26.77;;;13.50;;
74833;SDS011;63361;52.384;20.930;2023-11-21T00:25:10;21.70;;;10.70;;
74833;SDS011;63361;52.384;20.930;2023-11-21T00:27:35;26.60;;;13.20;;
74833;SDS011;63361;52.384;20.930;2023-11-21T00:30:01;25.45;;;12.50;;
74833;SDS011;63361;52.384;20.930;2023-11-21T00:32:29;30.95;;;14.82;;
74833;SDS011;63361;52.384;20.930;2023-11-21T00:34:54;28.70;;;14.33;;
74833;SDS011;63361;52.384;20.930;2023-11-21T00:37:19;33.03;;;14.87;;
74833;SDS011;63361;52.384;20.930;2023-11-21T00:39:45;27.13;;;12.50;;
74833;SDS011;63361;52.384;20.930;2023-11-21T00:42:10;29.93;;;13.53;;
74833;SDS011;63361;52.384;20.930;2023-11-21T00:44:37;19.60;;;10.63;;
74833;SDS011;63361;52.384;20.930;2023-11-21T00:47:04;22.60;;;12.13;;
74833;SDS011;63361;52.384;20.930;2023-11-21T00:49:29;20.77;;;9.67;;
74833;SDS011;63361;52.384;20.930;2023-11-21T00:51:54;29.20;;;13.47;;
74833;SDS011;63361;52.384;20.930;2023-11-21T00:54:20;24.80;;;11.75;;
74833;SDS011;63361;52.384;20.930;2023-11-21T00:56:45;30.07;;;14.77;;
74833;SDS011;63361;52.384;20.930;2023-11-21T00:59:12;29.38;;;13.98;;
74833;SDS011;63361;52.384;20.930;2023-11-21T01:01:37;30.43;;;13.10;;
74833;SDS011;63361;52.384;20.930;2023-11-21T01:04:03;33.07;;;15.93;;
74833;SDS011;63361;52.384;20.930;2023-11-21T01:06:28;27.87;;;14.13;;
74833;SDS011;63361;52.384;20.930;2023-11-21T01:08:54;29.27;;;13.02;;
74833;SDS011;63361;52.384;20.930;2023-11-21T01:11:20;27.20;;;14.13;;
74833;SDS011;63361;52.384;20.930;2023-11-21T01:13:45;23.93;;;11.60;;
74833;SDS011;63361;52.384;20.930;2023-11-21T01:16:11;27.23;;;13.85;;
74833;SDS011;63361;52.384;20.930;2023-11-21T01:18:36;29.87;;;13.43;;
74833;SDS011;63361;52.384;20.930;2023-11-21T01:21:02;20.53;;;10.53;;
74833;SDS011;63361;52.384;20.930;2023-11-21T01:23:27;24.43;;;11.73;;
74833;SDS011;63361;52.384;20.930;2023-11-21T01:25:53;23.37;;;12.60;;
74833;SDS011;63361;52.384;20.930;2023-11-21T01:28:20;28.05;;;14.07;;
74833;SDS011;63361;52.384;20.930;2023-11-21T01:30:46;24.00;;;11.30;;
74833;SDS011;63361;52.384;20.930;2023-11-21T01:33:11;31.25;;;14.82;;
74833;SDS011;63361;52.384;20.930;2023-11-21T01:35:36;25.63;;;13.60;;
74833;SDS011;63361;52.384;20.930;2023-11-21T01:38:02;26.40;;;12.17;;
74833;SDS011;63361;52.384;20.930;2023-11-21T01:40:28;28.52;;;13.82;;
74833;SDS011;63361;52.384;20.930;2023-11-21T01:42:55;25.03;;;11.37;;
74833;SDS011;63361;52.384;20.930;2023-11-21T01:45:21;22.88;;;11.55;;
74833;SDS011;63361;52.384;20.930;2023-11-21T01:47:46;27.57;;;12.87;;
74833;SDS011;63361;52.384;20.930;2023-11-21T01:50:15;27.07;;;13.67;;
74833;SDS011;63361;52.384;20.930;2023-11-21T01:52:42;25.10;;;13.15;;
74833;SDS011;63361;52.384;20.930;2023-11-21T01:55:09;16.27;;;10.07;;
74833;SDS011;63361;52.384;20.930;2023-11-21T01:57:35;21.85;;;10.57;;
74833;SDS011;63361;52.384;20.930;2023-11-21T02:00:04;25.15;;;13.38;;
74833;SDS011;63361;52.384;20.930;2023-11-21T02:02:42;28.07;;;11.80;;
74833;SDS011;63361;52.384;20.930;2023-11-21T02:05:09;28.20;;;13.77;;
74833;SDS011;63361;52.384;20.930;2023-11-21T02:07:35;29.33;;;13.35;;
74833;SDS011;63361;52.384;20.930;2023-11-21T02:10:00;25.90;;;12.43;;
74833;SDS011;63361;52.384;20.930;2023-11-21T02:12:26;32.35;;;14.75;;
74833;SDS011;63361;52.384;20.930;2023-11-21T02:14:52;26.20;;;12.67;;
74833;SDS011;63361;52.384;20.930;2023-11-21T02:17:18;26.58;;;12.43;;
74833;SDS011;63361;52.384;20.930;2023-11-21T02:19:43;31.90;;;14.33;;
74833;SDS011;63361;52.384;20.930;2023-11-21T02:22:09;28.83;;;13.50;;
74833;SDS011;63361;52.384;20.930;2023-11-21T02:24:36;28.23;;;13.50;;
74833;SDS011;63361;52.384;20.930;2023-11-21T02:27:02;32.83;;;12.40;;
74833;SDS011;63361;52.384;20.930;2023-11-21T02:29:27;26.52;;;13.13;;
74833;SDS011;63361;52.384;20.930;2023-11-21T02:31:53;31.03;;;13.67;;
74833;SDS011;63361;52.384;20.930;2023-11-21T02:34:20;24.50;;;12.13;;
74833;SDS011;63361;52.384;20.930;2023-11-21T02:36:46;30.38;;;13.23;;
74833;SDS011;63361;52.384;20.930;2023-11-21T02:39:14;32.05;;;13.90;;
74833;SDS011;63361;52.384;20.930;2023-11-21T02:41:40;28.40;;;14.30;;
74833;SDS011;63361;52.384;20.930;2023-11-21T02:44:06;32.23;;;13.70;;
74833;SDS011;63361;52.384;20.930;2023-11-21T02:46:32;28.25;;;12.55;;
74833;SDS011;63361;52.384;20.930;2023-11-21T02:48:59;27.05;;;12.88;;
74833;SDS011;63361;52.384;20.930;2023-11-21T02:51:25;34.40;;;14.82;;
74833;SDS011;63361;52.384;20.930;2023-11-21T02:53:50;25.13;;;12.03;;
74833;SDS011;63361;52.384;20.930;2023-11-21T02:56:16;28.27;;;12.43;;
74833;SDS011;63361;52.384;20.930;2023-11-21T02:58:42;29.35;;;12.10;;
74833;SDS011;63361;52.384;20.930;2023-11-21T03:01:08;27.20;;;13.50;;
74833;SDS011;63361;52.384;20.930;2023-11-21T03:03:34;22.10;;;12.97;;
74833;SDS011;63361;52.384;20.930;2023-11-21T03:05:59;25.87;;;12.43;;
74833;SDS011;63361;52.384;20.930;2023-11-21T03:08:25;37.73;;;15.73;;
74833;SDS011;63361;52.384;20.930;2023-11-21T03:10:50;30.92;;;14.63;;
74833;SDS011;63361;52.384;20.930;2023-11-21T03:13:16;28.20;;;13.80;;
74833;SDS011;63361;52.384;20.930;2023-11-21T03:15:41;21.43;;;12.70;;
74833;SDS011;63361;52.384;20.930;2023-11-21T03:18:07;27.95;;;13.32;;
74833;SDS011;63361;52.384;20.930;2023-11-21T03:20:33;27.97;;;12.77;;
74833;SDS011;63361;52.384;20.930;2023-11-21T03:22:59;29.63;;;13.52;;
74833;SDS011;63361;52.384;20.930;2023-11-21T03:25:25;24.13;;;12.40;;
74833;SDS011;63361;52.384;20.930;2023-11-21T03:27:50;21.83;;;11.27;;
74833;SDS011;63361;52.384;20.930;2023-11-21T03:30:15;19.20;;;9.30;;
74833;SDS011;63361;52.384;20.930;2023-11-21T03:36:04;24.70;;;10.52;;
74833;SDS011;63361;52.384;20.930;2023-11-21T03:38:30;23.00;;;9.82;;
74833;SDS011;63361;52.384;20.930;2023-11-21T03:40:55;23.20;;;10.57;;
74833;SDS011;63361;52.384;20.930;2023-11-21T03:43:21;29.17;;;11.57;;
74833;SDS011;63361;52.384;20.930;2023-11-21T03:45:46;22.47;;;10.27;;
74833;SDS011;63361;52.384;20.930;2023-11-21T03:48:12;15.40;;;7.87;;
74833;SDS011;63361;52.384;20.930;2023-11-21T03:50:38;21.30;;;11.18;;
74833;SDS011;63361;52.384;20.930;2023-11-21T03:53:03;23.87;;;10.47;;
74833;SDS011;63361;52.384;20.930;2023-11-21T03:55:29;18.08;;;9.05;;
74833;SDS011;63361;52.384;20.930;2023-11-21T03:57:56;25.63;;;11.35;;
74833;SDS011;63361;52.384;20.930;2023-11-21T04:00:22;20.65;;;9.23;;
74833;SDS011;63361;52.384;20.930;2023-11-21T04:02:48;18.07;;;9.90;;
74833;SDS011;63361;52.384;20.930;2023-11-21T04:05:13;28.93;;;11.37;;
74833;SDS011;63361;52.384;20.930;2023-11-21T04:07:39;22.73;;;10.23;;
74833;SDS011;63361;52.384;20.930;2023-11-21T04:10:06;24.07;;;11.50;;
74833;SDS011;63361;52.384;20.930;2023-11-21T04:12:34;21.77;;;11.50;;
74833;SDS011;63361;52.384;20.930;2023-11-21T04:15:03;22.52;;;10.38;;
74833;SDS011;63361;52.384;20.930;2023-11-21T04:17:28;22.25;;;9.32;;
74833;SDS011;63361;52.384;20.930;2023-11-21T04:19:54;20.23;;;9.43;;
74833;SDS011;63361;52.384;20.930;2023-11-21T04:22:19;20.67;;;10.13;;
74833;SDS011;63361;52.384;20.930;2023-11-21T04:24:44;22.07;;;9.33;;
74833;SDS011;63361;52.384;20.930;2023-11-21T04:27:10;31.83;;;11.73;;
74833;SDS011;63361;52.384;20.930;2023-11-21T04:29:35;16.67;;;7.80;;
74833;SDS011;63361;52.384;20.930;2023-11-21T04:32:01;20.53;;;7.83;;
74833;SDS011;63361;52.384;20.930;2023-11-21T04:34:27;16.40;;;6.88;;
74833;SDS011;63361;52.384;20.930;2023-11-21T04:36:55;15.40;;;7.17;;
74833;SDS011;63361;52.384;20.930;2023-11-21T04:39:21;12.70;;;7.37;;
74833;SDS011;63361;52.384;20.930;2023-11-21T04:41:46;13.33;;;6.23;;
74833;SDS011;63361;52.384;20.930;2023-11-21T04:44:11;11.23;;;6.27;;
74833;SDS011;63361;52.384;20.930;2023-11-21T04:46:37;17.13;;;8.73;;
74833;SDS011;63361;52.384;20.930;2023-11-21T04:49:02;15.37;;;7.70;;
74833;SDS011;63361;52.384;20.930;2023-11-21T04:51:27;17.20;;;9.27;;
74833;SDS011;63361;52.384;20.930;2023-11-21T04:53:53;17.90;;;8.83;;
74833;SDS011;63361;52.384;20.930;2023-11-21T04:56:18;20.63;;;9.98;;
74833;SDS011;63361;52.384;20.930;2023-11-21T04:58:44;14.53;;;7.43;;
74833;SDS011;63361;52.384;20.930;2023-11-21T05:01:09;19.63;;;8.87;;
74833;SDS011;63361;52.384;20.930;2023-11-21T05:03:34;17.40;;;9.13;;
74833;SDS011;63361;52.384;20.930;2023-11-21T05:06:00;18.60;;;9.70;;
74833;SDS011;63361;52.384;20.930;2023-11-21T05:08:25;20.13;;;8.35;;
74833;SDS011;63361;52.384;20.930;2023-11-21T05:10:51;15.45;;;7.45;;
74833;SDS011;63361;52.384;20.930;2023-11-21T05:13:17;17.05;;;7.82;;
74833;SDS011;63361;52.384;20.930;2023-11-21T05:15:43;15.20;;;7.13;;
74833;SDS011;63361;52.384;20.930;2023-11-21T05:18:09;16.17;;;8.03;;
74833;SDS011;63361;52.384;20.930;2023-11-21T05:20:35;18.50;;;8.57;;
74833;SDS011;63361;52.384;20.930;2023-11-21T05:23:01;15.43;;;7.47;;
74833;SDS011;63361;52.384;20.930;2023-11-21T05:25:26;12.77;;;7.07;;
74833;SDS011;63361;52.384;20.930;2023-11-21T05:27:52;11.03;;;6.20;;
74833;SDS011;63361;52.384;20.930;2023-11-21T05:30:18;16.08;;;7.15;;
74833;SDS011;63361;52.384;20.930;2023-11-21T05:32:43;14.67;;;7.07;;
74833;SDS011;63361;52.384;20.930;2023-11-21T05:35:09;17.07;;;8.27;;
74833;SDS011;63361;52.384;20.930;2023-11-21T05:37:40;20.85;;;7.78;;
74833;SDS011;63361;52.384;20.930;2023-11-21T05:40:06;17.73;;;8.57;;
74833;SDS011;63361;52.384;20.930;2023-11-21T05:42:33;17.85;;;8.95;;
74833;SDS011;63361;52.384;20.930;2023-11-21T05:44:59;17.50;;;7.55;;
74833;SDS011;63361;52.384;20.930;2023-11-21T05:47:35;24.80;;;7.35;;
74833;SDS011;63361;52.384;20.930;2023-11-21T05:50:05;15.75;;;7.18;;
74833;SDS011;63361;52.384;20.930;2023-11-21T05:52:34;17.60;;;8.13;;
74833;SDS011;63361;52.384;20.930;2023-11-21T05:55:00;15.20;;;7.45;;
74833;SDS011;63361;52.384;20.930;2023-11-21T05:57:25;20.57;;;9.17;;
74833;SDS011;63361;52.384;20.930;2023-11-21T05:59:50;16.17;;;8.83;;
74833;SDS011;63361;52.384;20.930;2023-11-21T06:02:16;18.73;;;8.80;;
74833;SDS011;63361;52.384;20.930;2023-11-21T06:04:41;15.07;;;7.93;;
74833;SDS011;63361;52.384;20.930;2023-11-21T06:07:07;17.93;;;7.97;;
74833;SDS011;63361;52.384;20.930;2023-11-21T06:09:32;15.00;;;8.20;;
74833;SDS011;63361;52.384;20.930;2023-11-21T06:11:58;13.43;;;7.77;;
74833;SDS011;63361;52.384;20.930;2023-11-21T06:14:23;15.93;;;8.43;;
74833;SDS011;63361;52.384;20.930;2023-11-21T06:16:49;15.63;;;7.67;;
74833;SDS011;63361;52.384;20.930;2023-11-21T06:19:16;15.93;;;7.28;;
74833;SDS011;63361;52.384;20.930;2023-11-21T06:21:44;21.00;;;7.47;;
74833;SDS011;63361;52.384;20.930;2023-11-21T06:24:10;13.03;;;6.87;;
74833;SDS011;63361;52.384;20.930;2023-11-21T06:26:36;21.85;;;8.68;;
74833;SDS011;63361;52.384;20.930;2023-11-21T06:29:01;16.50;;;7.53;;
74833;SDS011;63361;52.384;20.930;2023-11-21T06:31:28;16.30;;;8.23;;
74833;SDS011;63361;52.384;20.930;2023-11-21T06:33:54;17.13;;;8.00;;
74833;SDS011;63361;52.384;20.930;2023-11-21T06:36:19;18.73;;;8.75;;
74833;SDS011;63361;52.384;20.930;2023-11-21T06:38:45;18.80;;;9.47;;
74833;SDS011;63361;52.384;20.930;2023-11-21T06:41:11;14.33;;;7.53;;
74833;SDS011;63361;52.384;20.930;2023-11-21T06:43:38;22.65;;;8.50;;
74833;SDS011;63361;52.384;20.930;2023-11-21T06:46:04;20.30;;;8.27;;
74833;SDS011;63361;52.384;20.930;2023-11-21T06:48:30;19.08;;;6.97;;
74833;SDS011;63361;52.384;20.930;2023-11-21T06:50:56;16.38;;;7.50;;
74833;SDS011;63361;52.384;20.930;2023-11-21T06:53:21;36.37;;;9.60;;
74833;SDS011;63361;52.384;20.930;2023-11-21T06:55:46;15.83;;;8.07;;
74833;SDS011;63361;52.384;20.930;2023-11-21T06:58:12;18.17;;;8.83;;
74833;SDS011;63361;52.384;20.930;2023-11-21T07:00:39;19.45;;;8.63;;
74833;SDS011;63361;52.384;20.930;2023-11-21T07:03:04;19.50;;;8.80;;
74833;SDS011;63361;52.384;20.930;2023-11-21T07:05:30;14.03;;;6.10;;
74833;SDS011;63361;52.384;20.930;2023-11-21T07:07:55;15.73;;;8.02;;
74833;SDS011;63361;52.384;20.930;2023-11-21T07:10:21;17.97;;;8.43;;
74833;SDS011;63361;52.384;20.930;2023-11-21T07:12:47;15.07;;;7.30;;
74833;SDS011;63361;52.384;20.930;2023-11-21T07:15:12;16.80;;;8.20;;
74833;SDS011;63361;52.384;20.930;2023-11-21T07:17:37;18.53;;;8.60;;
74833;SDS011;63361;52.384;20.930;2023-11-21T07:20:03;17.77;;;7.67;;
74833;SDS011;63361;52.384;20.930;2023-11-21T07:22:29;20.17;;;9.32;;
74833;SDS011;63361;52.384;20.930;2023-11-21T07:24:55;16.95;;;8.57;;
74833;SDS011;63361;52.384;20.930;2023-11-21T07:27:21;17.60;;;7.50;;
74833;SDS011;63361;52.384;20.930;2023-11-21T07:29:47;16.88;;;8.10;;
74833;SDS011;63361;52.384;20.930;2023-11-21T07:32:13;15.43;;;6.73;;
74833;SDS011;63361;52.384;20.930;2023-11-21T07:34:39;18.73;;;8.50;;
74833;SDS011;63361;52.384;20.930;2023-11-21T07:37:06;16.20;;;8.73;;
74833;SDS011;63361;52.384;20.930;2023-11-21T07:39:33;15.10;;;7.63;;
74833;SDS011;63361;52.384;20.930;2023-11-21T07:41:59;20.42;;;8.00;;
74833;SDS011;63361;52.384;20.930;2023-11-21T07:44:25;15.37;;;8.10;;
74833;SDS011;63361;52.384;20.930;2023-11-21T07:46:51;20.35;;;8.55;;
74833;SDS011;63361;52.384;20.930;2023-11-21T07:49:16;16.70;;;7.53;;
74833;SDS011;63361;52.384;20.930;2023-11-21T07:51:45;16.10;;;7.88;;
74833;SDS011;63361;52.384;20.930;2023-11-21T07:54:11;15.30;;;7.53;;
74833;SDS011;63361;52.384;20.930;2023-11-21T07:56:36;17.30;;;8.80;;
74833;SDS011;63361;52.384;20.930;2023-11-21T07:59:02;16.70;;;7.33;;
74833;SDS011;63361;52.384;20.930;2023-11-21T08:01:27;18.10;;;7.07;;
74833;SDS011;63361;52.384;20.930;2023-11-21T08:03:53;13.40;;;6.67;;
74833;SDS011;63361;52.384;20.930;2023-11-21T08:06:22;17.05;;;8.05;;
74833;SDS011;63361;52.384;20.930;2023-11-21T08:08:48;14.05;;;7.13;;
74833;SDS011;63361;52.384;20.930;2023-11-21T08:11:14;14.93;;;8.20;;
74833;SDS011;63361;52.384;20.930;2023-11-21T08:13:39;15.77;;;7.30;;
74833;SDS011;63361;52.384;20.930;2023-11-21T08:16:04;16.55;;;7.25;;
74833;SDS011;63361;52.384;20.930;2023-11-21T08:18:32;16.80;;;8.57;;
74833;SDS011;63361;52.384;20.930;2023-11-21T08:20:59;15.73;;;8.18;;
74833;SDS011;63361;52.384;20.930;2023-11-21T08:23:25;21.58;;;8.57;;
74833;SDS011;63361;52.384;20.930;2023-11-21T08:25:51;17.45;;;7.72;;
74833;SDS011;63361;52.384;20.930;2023-11-21T08:28:17;12.77;;;6.93;;
74833;SDS011;63361;52.384;20.930;2023-11-21T08:30:43;16.63;;;8.13;;
74833;SDS011;63361;52.384;20.930;2023-11-21T08:33:09;17.47;;;8.80;;
74833;SDS011;63361;52.384;20.930;2023-11-21T08:35:36;19.77;;;10.60;;
74833;SDS011;63361;52.384;20.930;2023-11-21T08:38:02;19.35;;;9.23;;
74833;SDS011;63361;52.384;20.930;2023-11-21T08:40:28;15.90;;;8.20;;
74833;SDS011;63361;52.384;20.930;2023-11-21T08:42:54;26.02;;;11.05;;
74833;SDS011;63361;52.384;20.930;2023-11-21T08:45:20;39.40;;;15.47;;
74833;SDS011;63361;52.384;20.930;2023-11-21T08:47:46;39.47;;;16.45;;
74833;SDS011;63361;52.384;20.930;2023-11-21T08:50:12;30.98;;;12.75;;
74833;SDS011;63361;52.384;20.930;2023-11-21T08:52:38;24.30;;;11.00;;
74833;SDS011;63361;52.384;20.930;2023-11-21T08:55:05;20.30;;;11.70;;
74833;SDS011;63361;52.384;20.930;2023-11-21T08:57:34;19.20;;;10.07;;
74833;SDS011;63361;52.384;20.930;2023-11-21T09:00:01;26.33;;;11.38;;
74833;SDS011;63361;52.384;20.930;2023-11-21T09:02:28;17.90;;;8.73;;
74833;SDS011;63361;52.384;20.930;2023-11-21T09:04:53;21.13;;;10.77;;
74833;SDS011;63361;52.384;20.930;2023-11-21T09:07:19;21.30;;;10.37;;
74833;SDS011;63361;52.384;20.930;2023-11-21T09:09:45;14.75;;;7.40;;
74833;SDS011;63361;52.384;20.930;2023-11-21T09:12:12;18.58;;;9.43;;
74833;SDS011;63361;52.384;20.930;2023-11-21T09:14:38;14.23;;;7.70;;
74833;SDS011;63361;52.384;20.930;2023-11-21T09:17:04;20.90;;;9.65;;
74833;SDS011;63361;52.384;20.930;2023-11-21T09:19:35;16.67;;;7.50;;
74833;SDS011;63361;52.384;20.930;2023-11-21T09:22:04;19.40;;;8.40;;
74833;SDS011;63361;52.384;20.930;2023-11-21T09:24:33;26.00;;;11.55;;
74833;SDS011;63361;52.384;20.930;2023-11-21T09:26:59;17.13;;;8.93;;
74833;SDS011;63361;52.384;20.930;2023-11-21T09:29:28;18.85;;;9.45;;
74833;SDS011;63361;52.384;20.930;2023-11-21T09:31:54;16.13;;;8.45;;
74833;SDS011;63361;52.384;20.930;2023-11-21T09:34:20;16.90;;;8.33;;
74833;SDS011;63361;52.384;20.930;2023-11-21T09:36:46;18.98;;;9.85;;
74833;SDS011;63361;52.384;20.930;2023-11-21T09:39:12;21.30;;;9.65;;
74833;SDS011;63361;52.384;20.930;2023-11-21T09:41:49;21.50;;;9.75;;
74833;SDS011;63361;52.384;20.930;2023-11-21T09:44:32;19.80;;;9.30;;
74833;SDS011;63361;52.384;20.930;2023-11-21T09:47:01;14.25;;;8.32;;
74833;SDS011;63361;52.384;20.930;2023-11-21T09:49:27;18.80;;;10.00;;
74833;SDS011;63361;52.384;20.930;2023-11-21T09:51:54;19.70;;;9.27;;
74833;SDS011;63361;52.384;20.930;2023-11-21T09:54:23;21.55;;;10.80;;
74833;SDS011;63361;52.384;20.930;2023-11-21T09:56:50;22.27;;;11.25;;
74833;SDS011;63361;52.384;20.930;2023-11-21T09:59:15;18.13;;;8.80;;
74833;SDS011;63361;52.384;20.930;2023-11-21T10:01:41;20.13;;;9.70;;
74833;SDS011;63361;52.384;20.930;2023-11-21T10:04:08;16.03;;;8.60;;
74833;SDS011;63361;52.384;20.930;2023-11-21T10:06:40;20.02;;;9.23;;
74833;SDS011;63361;52.384;20.930;2023-11-21T10:09:11;18.63;;;7.60;;
74833;SDS011;63361;52.384;20.930;2023-11-21T10:11:41;15.35;;;7.55;;
74833;SDS011;63361;52.384;20.930;2023-11-21T10:14:08;22.85;;;10.80;;
74833;SDS011;63361;52.384;20.930;2023-11-21T10:16:36;12.67;;;7.17;;
74833;SDS011;63361;52.384;20.930;2023-11-21T10:19:04;20.58;;;9.95;;
74833;SDS011;63361;52.384;20.930;2023-11-21T10:21:32;18.25;;;9.07;;
74833;SDS011;63361;52.384;20.930;2023-11-21T10:23:58;15.75;;;8.70;;
74833;SDS011;63361;52.384;20.930;2023-11-21T10:26:24;16.17;;;8.33;;
74833;SDS011;63361;52.384;20.930;2023-11-21T10:28:55;15.10;;;6.97;;
74833;SDS011;63361;52.384;20.930;2023-11-21T10:31:29;9.98;;;5.68;;
74833;SDS011;63361;52.384;20.930;2023-11-21T10:34:10;18.02;;;7.88;;
74833;SDS011;63361;52.384;20.930;2023-11-21T10:36:43;13.13;;;6.15;;
74833;SDS011;63361;52.384;20.930;2023-11-21T10:39:09;15.70;;;6.60;;
74833;SDS011;63361;52.384;20.930;2023-11-21T10:41:43;19.25;;;9.88;;
74833;SDS011;63361;52.384;20.930;2023-11-21T10:44:10;15.07;;;7.80;;
74833;SDS011;63361;52.384;20.930;2023-11-21T10:46:36;15.75;;;7.95;;
74833;SDS011;63361;52.384;20.930;2023-11-21T10:49:03;17.00;;;7.30;;
74833;SDS011;63361;52.384;20.930;2023-11-21T10:51:29;10.57;;;4.80;;
74833;SDS011;63361;52.384;20.930;2023-11-21T10:53:54;12.37;;;7.03;;
74833;SDS011;63361;52.384;20.930;2023-11-21T10:56:20;24.83;;;8.52;;
74833;SDS011;63361;52.384;20.930;2023-11-21T10:58:48;11.13;;;6.33;;
74833;SDS011;63361;52.384;20.930;2023-11-21T11:01:18;13.80;;;8.30;;
74833;SDS011;63361;52.384;20.930;2023-11-21T11:03:46;23.92;;;8.00;;
74833;SDS011;63361;52.384;20.930;2023-11-21T11:06:12;19.25;;;8.75;;
74833;SDS011;63361;52.384;20.930;2023-11-21T11:08:38;14.13;;;8.63;;
74833;SDS011;63361;52.384;20.930;2023-11-21T11:11:07;16.02;;;7.78;;
74833;SDS011;63361;52.384;20.930;2023-11-21T11:13:34;18.08;;;6.90;;
74833;SDS011;63361;52.384;20.930;2023-11-21T11:16:01;16.50;;;8.90;;
74833;SDS011;63361;52.384;20.930;2023-11-21T11:18:27;18.17;;;9.67;;
74833;SDS011;63361;52.384;20.930;2023-11-21T11:20:54;20.52;;;8.75;;
74833;SDS011;63361;52.384;20.930;2023-11-21T11:34:30;13.00;;;6.72;;
74833;SDS011;63361;52.384;20.930;2023-11-21T11:37:02;14.13;;;6.90;;
74833;SDS011;63361;52.384;20.930;2023-11-21T11:39:30;12.20;;;6.53;;
74833;SDS011;63361;52.384;20.930;2023-11-21T11:41:56;22.95;;;9.45;;
74833;SDS011;63361;52.384;20.930;2023-11-21T11:47:15;11.30;;;5.78;;
74833;SDS011;63361;52.384;20.930;2023-11-21T11:52:41;16.77;;;8.07;;
74833;SDS011;63361;52.384;20.930;2023-11-21T11:55:11;12.52;;;7.45;;
74833;SDS011;63361;52.384;20.930;2023-11-21T11:57:44;15.02;;;7.78;;
74833;SDS011;63361;52.384;20.930;2023-11-21T12:00:33;17.35;;;8.35;;
74833;SDS011;63361;52.384;20.930;2023-11-21T12:03:02;10.27;;;5.57;;
74833;SDS011;63361;52.384;20.930;2023-11-21T12:05:29;13.07;;;7.90;;
74833;SDS011;63361;52.384;20.930;2023-11-21T12:07:59;30.42;;;8.20;;
74833;SDS011;63361;52.384;20.930;2023-11-21T12:10:26;9.80;;;5.47;;
74833;SDS011;63361;52.384;20.930;2023-11-21T12:13:03;14.00;;;7.55;;
74833;SDS011;63361;52.384;20.930;2023-11-21T12:15:35;10.40;;;5.63;;
74833;SDS011;63361;52.384;20.930;2023-11-21T12:18:01;13.48;;;6.32;;
74833;SDS011;63361;52.384;20.930;2023-11-21T12:20:27;11.10;;;6.40;;
74833;SDS011;63361;52.384;20.930;2023-11-21T12:22:55;11.85;;;5.32;;
74833;SDS011;63361;52.384;20.930;2023-11-21T12:25:25;9.88;;;5.47;;
74833;SDS011;63361;52.384;20.930;2023-11-21T12:27:54;14.53;;;6.70;;
74833;SDS011;63361;52.384;20.930;2023-11-21T12:30:24;14.95;;;6.72;;
74833;SDS011;63361;52.384;20.930;2023-11-21T12:32:53;17.42;;;8.02;;
74833;SDS011;63361;52.384;20.930;2023-11-21T12:35:22;12.77;;;6.88;;
74833;SDS011;63361;52.384;20.930;2023-11-21T12:37:49;23.75;;;10.73;;
74833;SDS011;63361;52.384;20.930;2023-11-21T12:40:17;15.53;;;7.07;;
74833;SDS011;63361;52.384;20.930;2023-11-21T12:42:46;15.27;;;8.02;;
74833;SDS011;63361;52.384;20.930;2023-11-21T12:47:46;21.98;;;11.00;;
74833;SDS011;63361;52.384;20.930;2023-11-21T12:50:19;14.65;;;8.15;;
74833;SDS011;63361;52.384;20.930;2023-11-21T12:52:48;14.53;;;8.03;;
74833;SDS011;63361;52.384;20.930;2023-11-21T12:55:18;18.33;;;9.38;;
74833;SDS011;63361;52.384;20.930;2023-11-21T12:57:57;18.00;;;8.90;;
74833;SDS011;63361;52.384;20.930;2023-11-21T13:00:32;23.35;;;11.60;;
74833;SDS011;63361;52.384;20.930;2023-11-21T13:03:02;23.83;;;10.95;;
74833;SDS011;63361;52.384;20.930;2023-11-21T13:07:56;18.23;;;9.20;;
74833;SDS011;63361;52.384;20.930;2023-11-21T13:10:23;20.17;;;8.73;;
74833;SDS011;63361;52.384;20.930;2023-11-21T13:12:52;21.90;;;11.45;;
74833;SDS011;63361;52.384;20.930;2023-11-21T13:15:18;25.60;;;10.68;;
74833;SDS011;63361;52.384;20.930;2023-11-21T13:17:45;19.07;;;9.53;;
74833;SDS011;63361;52.384;20.930;2023-11-21T13:20:11;22.35;;;9.88;;
74833;SDS011;63361;52.384;20.930;2023-11-21T13:22:45;28.00;;;12.40;;
74833;SDS011;63361;52.384;20.930;2023-11-21T13:25:20;19.35;;;9.48;;
74833;SDS011;63361;52.384;20.930;2023-11-21T13:27:46;21.13;;;11.63;;
74833;SDS011;63361;52.384;20.930;2023-11-21T13:30:15;19.73;;;10.57;;
74833;SDS011;63361;52.384;20.930;2023-11-21T13:32:44;18.93;;;9.53;;
74833;SDS011;63361;52.384;20.930;2023-11-21T13:35:16;20.58;;;10.75;;
74833;SDS011;63361;52.384;20.930;2023-11-21T13:37:55;18.33;;;8.65;;
74833;SDS011;63361;52.384;20.930;2023-11-21T13:40:25;25.30;;;10.77;;
74833;SDS011;63361;52.384;20.930;2023-11-21T13:42:52;22.10;;;12.05;;
74833;SDS011;63361;52.384;20.930;2023-11-21T13:45:21;25.07;;;10.40;;
74833;SDS011;63361;52.384;20.930;2023-11-21T13:47:48;25.52;;;10.95;;
74833;SDS011;63361;52.384;20.930;2023-11-21T13:50:16;22.40;;;10.75;;
74833;SDS011;63361;52.384;20.930;2023-11-21T13:52:47;18.95;;;10.77;;
74833;SDS011;63361;52.384;20.930;2023-11-21T13:55:13;28.23;;;13.95;;
74833;SDS011;63361;52.384;20.930;2023-11-21T13:57:41;21.03;;;10.33;;
74833;SDS011;63361;52.384;20.930;2023-11-21T14:00:14;19.45;;;9.90;;
74833;SDS011;63361;52.384;20.930;2023-11-21T14:02:59;18.08;;;9.20;;
74833;SDS011;63361;52.384;20.930;2023-11-21T14:05:26;14.23;;;7.90;;
74833;SDS011;63361;52.384;20.930;2023-11-21T14:07:58;23.15;;;11.15;;
74833;SDS011;63361;52.384;20.930;2023-11-21T14:10:30;19.60;;;9.67;;
74833;SDS011;63361;52.384;20.930;2023-11-21T14:13:07;28.33;;;14.20;;
74833;SDS011;63361;52.384;20.930;2023-11-21T14:15:35;28.70;;;13.63;;
74833;SDS011;63361;52.384;20.930;2023-11-21T14:18:06;26.85;;;13.85;;
74833;SDS011;63361;52.384;20.930;2023-11-21T14:20:42;26.98;;;13.07;;
74833;SDS011;63361;52.384;20.930;2023-11-21T14:23:07;17.20;;;9.03;;
74833;SDS011;63361;52.384;20.930;2023-11-21T14:25:37;20.13;;;10.57;;
74833;SDS011;63361;52.384;20.930;2023-11-21T14:28:04;25.75;;;12.88;;
74833;SDS011;63361;52.384;20.930;2023-11-21T14:30:31;20.80;;;10.48;;
74833;SDS011;63361;52.384;20.930;2023-11-21T14:33:00;19.90;;;10.65;;
74833;SDS011;63361;52.384;20.930;2023-11-21T14:35:26;29.97;;;12.63;;
74833;SDS011;63361;52.384;20.930;2023-11-21T14:37:51;23.37;;;11.60;;
74833;SDS011;63361;52.384;20.930;2023-11-21T14:40:17;26.55;;;13.38;;